KCHO

Charlottesville-Albemarle Airport

Charlottesville, Virginia, USA
KCHO 181126Z 1812/1912 33004KT P6SM SKC FM181300 33008G16KT P6SM SKC FM182200 00000KT P6SM SKC
Issued Valid From Valid To
Oct-18 @ 11:26 UTC
(43 minutes ago)
Oct-18 @ 12:00 UTC
(9 minutes ago)
Oct-19 @ 12:00 UTC
(in 24 hours)
Oct-18 @ 12:00 to Oct-18 @ 13:00
KCHO 181126Z 1812/1912 33004KT P6SM SKC
Wind Visibility Clouds
330° at 4 knots Greater than 6 miles
  • Clear skies
From Oct-18 @ 13:00 to Oct-18 @ 22:00
FM181300 33008G16KT P6SM SKC
Wind Visibility Clouds
330° at 8 knots
 Gusting to 16 knots
Greater than 6 miles
  • Clear skies
From Oct-18 @ 22:00 to Oct-19 @ 12:00
FM182200 00000KT P6SM SKC
Visibility Clouds
Greater than 6 miles
  • Clear skies
KCHO 181126Z 1812/1912 33004KT P6SM SKC FM181300 33008G16KT P6SM SKC FM182200 00000KT P6SM SKC
Issued Oct-18 @ 11:26 UTC
(43 minutes ago)
Valid From Oct-18 @ 12:00 UTC
(9 minutes ago)
Valid To Oct-19 @ 12:00 UTC
(in 24 hours)
Oct-18 @ 12:00 - Oct-18 @ 13:00
Wind Visibility
330° at 4 knots Greater than 6 miles
Clouds
  • Clear skies
From Oct-18 @ 13:00 - Oct-18 @ 22:00
Wind Visibility
330° at 8 knots
 Gusting to 16 knots
Greater than 6 miles
Clouds
  • Clear skies
From Oct-18 @ 22:00 - Oct-19 @ 12:00
Clouds
  • Clear skies